ENW weather

Palo Blanco Airstrip
La Purísima, Baja California Sur, Mexico

Public forecast

Using degrees Celsius for public forecast. Weather courtesy of forecast.io.

METAR (pilot weather report)

Closest report is Loreto International Airport, 42.0 nm (77.8 km) ESE. Retrieved 2019/06/20 14:44 UTC (42 minutes ago):

MMLT 201444Z 00000KT 10SM SKC 31/27 A2985 RMK SLP108

TAF (pilot weather forecast)

Forecast is more than 6 hours old.

Closest forecast is Loreto International Airport, 42.0 nm (77.8 km) ESE. Retrieved 2019/06/20 06:27 UTC (9 hours ago):

TAF MMLT 200520Z 2006/2106 16005KT P6SM SKC FM201600 03010KT P6SM SKC FM210300 03005KT P6SM SKC